Time;durP1;ratioP1;P1;durP2;ratioP2;P2;SDS_P1;SDS_P2;PMS_P1;PMS_P2;Temp;Humidity;BMP_temperature;BMP_pressure;BME280_temperature;BME280_humidity;BME280_pressure;Samples;Min_cycle;Max_cycle;Signal;HPM_P1;HPM_P2
2021/06/10 00:00:43;;;;;;;;;;;;;;;28.75;33.62;100158.22;4235738;33;34140;-94
2021/06/10 00:03:11;;;;;;;;;;;;;;;28.49;34.11;100148.25;4224361;33;32833;-93
2021/06/10 00:05:39;;;;;;;;;;;;;;;27.91;35.34;100150.34;4235631;33;32159;-93
2021/06/10 00:08:07;;;;;;;;;;;;;;;28.49;34.44;100156.28;4223932;33;32761;-94
2021/06/10 00:10:35;;;;;;;;;;;;;;;28.42;34.70;100150.69;4224387;33;33138;-94
2021/06/10 00:13:03;;;;;;;;;;;;;;;27.88;35.67;100156.00;4224970;33;32922;-93
2021/06/10 00:15:32;;;;;;;;;;;;;;;28.24;34.91;100152.53;4236436;33;32268;-92
2021/06/10 00:18:00;;;;;;;;;;;;;;;27.94;35.50;100150.03;4235760;33;33892;-92
2021/06/10 00:20:29;;;;;;;;;;;;;;;28.23;35.07;100141.00;4224099;33;32875;-92
2021/06/10 00:22:56;;;;;;;;;;;;;;;27.72;36.15;100147.75;4235495;33;34090;-93
2021/06/10 00:25:25;;;;;;;;;;;;;;;27.80;36.02;100143.34;4235491;33;32211;-94
2021/06/10 00:27:52;;;;;;;;;;;;;;;28.03;35.56;100142.97;4235373;33;32864;-92
2021/06/10 00:30:21;;;;;;;;;;;;;;;27.58;36.56;100141.09;4224970;33;32797;-92
2021/06/10 00:32:50;;;;;;;;;;;;;;;28.19;35.31;100142.28;4226018;33;32834;-92
2021/06/10 00:35:18;;;;;;;;;;;;;;;27.36;37.04;100144.94;4226002;33;32113;-91
2021/06/10 00:37:45;;;;;;;;;;;;;;;27.13;37.67;100148.78;4237404;33;32821;-92
2021/06/10 00:40:14;;;;;;;;;;;;;;;27.29;37.28;100145.50;4225734;33;33342;-92
2021/06/10 00:42:42;;;;;;;;;;;;;;;27.44;36.87;100142.41;4225892;33;32471;-93
2021/06/10 00:45:10;;;;;;;;;;;;;;;27.14;37.34;100131.78;4225758;33;33473;-94
2021/06/10 00:47:38;;;;;;;;;;;;;;;27.36;36.80;100143.09;4214221;33;33747;-92
2021/06/10 00:50:06;;;;;;;;;;;;;;;27.14;37.39;100136.28;4237217;33;33042;-93
2021/06/10 00:52:34;;;;;;;;;;;;;;;27.70;36.13;100131.84;4225688;33;33110;-93
2021/06/10 00:55:02;;;;;;;;;;;;;;;27.32;36.69;100134.53;4237566;33;33685;-93
2021/06/10 00:57:30;;;;;;;;;;;;;;;27.41;36.42;100135.50;4237392;33;34063;-93
2021/06/10 00:59:57;;;;;;;;;;;;;;;27.25;36.61;100143.28;4237561;33;34830;-92
2021/06/10 01:02:26;;;;;;;;;;;;;;;27.56;35.86;100141.22;4214132;33;32502;-91
2021/06/10 01:04:54;;;;;;;;;;;;;;;27.28;36.20;100143.00;4237128;33;32841;-92
2021/06/10 01:07:23;;;;;;;;;;;;;;;27.03;36.79;100141.78;4225333;33;33922;-93
2021/06/10 01:09:52;;;;;;;;;;;;;;;27.85;35.14;100142.91;4237367;33;33085;-93
2021/06/10 01:12:39;;;;;;;;;;;;;;;27.94;34.61;100143.84;4226029;33;32688;-92
2021/06/10 01:15:10;;;;;;;;;;;;;;;27.81;34.77;100142.37;4248642;33;32291;-93
2021/06/10 01:17:47;;;;;;;;;;;;;;;27.20;35.93;100138.34;4226139;33;33282;-91
2021/06/10 01:20:18;;;;;;;;;;;;;;;27.70;35.00;100131.03;4232960;33;32887;-93
2021/06/10 01:22:58;;;;;;;;;;;;;;;27.85;34.78;100131.34;4249488;33;33290;-93
2021/06/10 01:25:45;;;;;;;;;;;;;;;28.14;34.21;100132.00;4237640;33;33094;-93
2021/06/10 01:28:19;;;;;;;;;;;;;;;28.09;34.38;100136.16;4260752;33;35266;-93
2021/06/10 01:30:47;;;;;;;;;;;;;;;28.09;34.78;100142.34;4237383;33;32963;-94
2021/06/10 01:33:19;;;;;;;;;;;;;;;27.93;35.31;100134.94;4247158;33;32782;-93
2021/06/10 01:35:50;;;;;;;;;;;;;;;28.06;35.14;100144.50;4229789;33;32290;-94
2021/06/10 01:38:18;;;;;;;;;;;;;;;28.05;35.13;100134.78;4241624;33;33060;-93
2021/06/10 01:40:45;;;;;;;;;;;;;;;27.69;35.83;100135.50;4238136;33;33918;-93
2021/06/10 01:43:13;;;;;;;;;;;;;;;27.80;35.78;100140.69;4225263;33;33803;-91
2021/06/10 01:45:41;;;;;;;;;;;;;;;27.57;36.22;100140.22;4225442;33;33222;-92
2021/06/10 01:48:09;;;;;;;;;;;;;;;26.53;39.00;100141.00;4225246;33;32697;-94
2021/06/10 01:50:37;;;;;;;;;;;;;;;25.33;41.85;100137.31;4225797;33;34020;-92
2021/06/10 01:53:04;;;;;;;;;;;;;;;26.80;39.69;100134.97;4225508;33;33147;-92
2021/06/10 01:55:32;;;;;;;;;;;;;;;27.46;38.94;100135.91;4225827;33;32168;-92
2021/06/10 01:58:01;;;;;;;;;;;;;;;27.65;37.94;100140.31;4226054;33;33152;-94
2021/06/10 02:00:29;;;;;;;;;;;;;;;26.91;39.89;100150.00;4225416;33;33737;-92
2021/06/10 02:02:57;;;;;;;;;;;;;;;27.17;40.38;100160.06;4225694;33;33213;-92
2021/06/10 02:05:26;;;;;;;;;;;;;;;26.83;41.01;100161.41;4225622;33;32258;-91
2021/06/10 02:07:54;;;;;;;;;;;;;;;26.08;41.93;100155.72;4225739;33;33282;-94
2021/06/10 02:10:23;;;;;;;;;;;;;;;26.44;40.89;100147.19;4236881;33;32953;-92
2021/06/10 02:12:52;;;;;;;;;;;;;;;25.62;42.88;100149.09;4225580;33;33145;-91
2021/06/10 02:15:20;;;;;;;;;;;;;;;25.95;42.73;100155.97;4225461;33;32303;-92
2021/06/10 02:17:48;;;;;;;;;;;;;;;25.13;45.03;100154.19;4225441;33;32631;-93
2021/06/10 02:20:17;;;;;;;;;;;;;;;25.52;44.10;100154.41;4213807;33;32794;-92
2021/06/10 02:22:47;;;;;;;;;;;;;;;25.59;43.93;100144.03;4237541;33;33984;-94
2021/06/10 02:25:14;;;;;;;;;;;;;;;25.16;44.70;100149.44;4225382;33;32322;-93
2021/06/10 02:27:42;;;;;;;;;;;;;;;25.89;43.32;100142.31;4225375;33;32687;-92
2021/06/10 02:30:11;;;;;;;;;;;;;;;26.76;41.32;100138.06;4225107;33;33192;-92
2021/06/10 02:32:38;;;;;;;;;;;;;;;26.81;40.69;100141.13;4225405;33;32892;-92
2021/06/10 02:35:08;;;;;;;;;;;;;;;26.79;40.31;100137.75;4225441;33;32772;-93
2021/06/10 02:37:37;;;;;;;;;;;;;;;26.86;40.32;100143.38;4236552;33;33687;-93
2021/06/10 02:40:05;;;;;;;;;;;;;;;26.10;41.81;100144.88;4237169;33;34050;-92
2021/06/10 02:42:34;;;;;;;;;;;;;;;26.69;40.54;100150.28;4225303;33;33685;-94
2021/06/10 02:45:02;;;;;;;;;;;;;;;26.59;40.64;100151.12;4225049;33;32061;-92
2021/06/10 02:47:30;;;;;;;;;;;;;;;26.55;40.71;100156.88;4236435;33;33860;-93
2021/06/10 02:49:58;;;;;;;;;;;;;;;27.34;39.09;100153.13;4225214;33;33125;-94
2021/06/10 02:52:25;;;;;;;;;;;;;;;27.20;39.34;100156.25;4236369;33;34050;-93
2021/06/10 02:54:53;;;;;;;;;;;;;;;26.85;40.22;100152.41;4223849;33;32326;-92
2021/06/10 02:57:21;;;;;;;;;;;;;;;26.85;40.17;100142.53;4224991;33;32989;-91
2021/06/10 02:59:48;;;;;;;;;;;;;;;27.34;39.02;100151.25;4225094;33;34003;-92
2021/06/10 03:02:16;;;;;;;;;;;;;;;27.19;39.44;100149.22;4225010;33;33901;-93
2021/06/10 03:04:44;;;;;;;;;;;;;;;27.14;39.56;100147.81;4213406;33;31900;-92
2021/06/10 03:07:13;;;;;;;;;;;;;;;27.49;38.86;100151.66;4224945;33;33155;-92
2021/06/10 03:09:41;;;;;;;;;;;;;;;27.02;39.69;100148.13;4225160;33;32959;-92
2021/06/10 03:12:09;;;;;;;;;;;;;;;27.10;39.62;100153.63;4225648;33;33783;-92
2021/06/10 03:14:38;;;;;;;;;;;;;;;27.16;39.23;100153.00;4228056;33;31707;-92
2021/06/10 03:17:06;;;;;;;;;;;;;;;26.95;39.59;100154.06;4243117;33;33332;-91
2021/06/10 03:19:34;;;;;;;;;;;;;;;27.05;39.48;100153.19;4232303;33;32554;-90
2021/06/10 03:22:02;;;;;;;;;;;;;;;26.89;39.65;100146.59;4229857;33;33040;-93
2021/06/10 03:24:29;;;;;;;;;;;;;;;26.64;40.28;100146.16;4236516;33;33066;-92
2021/06/10 03:26:57;;;;;;;;;;;;;;;27.15;39.25;100152.19;4213204;33;33274;-93
2021/06/10 03:29:24;;;;;;;;;;;;;;;26.83;40.04;100152.50;4236552;33;34838;-92
2021/06/10 03:31:52;;;;;;;;;;;;;;;27.12;39.43;100152.47;4237480;33;33031;-94
2021/06/10 03:34:21;;;;;;;;;;;;;;;27.16;39.28;100148.53;4225036;33;32385;-93
2021/06/10 03:36:48;;;;;;;;;;;;;;;27.14;39.40;100152.34;4236182;33;33293;-92
2021/06/10 03:39:16;;;;;;;;;;;;;;;27.15;39.24;100151.31;4247615;33;33125;-92
2021/06/10 03:41:44;;;;;;;;;;;;;;;26.70;40.15;100150.13;4225376;33;32986;-92
2021/06/10 03:44:12;;;;;;;;;;;;;;;26.99;39.57;100159.94;4237333;33;32184;-93
2021/06/10 03:46:42;;;;;;;;;;;;;;;26.64;40.25;100154.19;4225253;33;33044;-92
2021/06/10 03:49:11;;;;;;;;;;;;;;;26.81;40.10;100158.00;4225418;33;33974;-93
2021/06/10 03:51:38;;;;;;;;;;;;;;;26.76;40.13;100156.75;4235537;33;32880;-93
2021/06/10 03:54:07;;;;;;;;;;;;;;;26.42;41.05;100159.81;4236016;33;34149;-91
2021/06/10 03:56:35;;;;;;;;;;;;;;;26.14;41.72;100159.69;4236039;33;33203;-92
2021/06/10 03:59:02;;;;;;;;;;;;;;;26.96;39.82;100146.88;4236329;33;33972;-91
2021/06/10 04:01:31;;;;;;;;;;;;;;;27.03;39.64;100163.19;4235754;33;32985;-93
2021/06/10 04:03:59;;;;;;;;;;;;;;;26.78;40.41;100163.66;4235859;33;32409;-94
2021/06/10 04:06:32;;;;;;;;;;;;;;;27.12;39.73;100162.31;4227482;33;33764;-92
2021/06/10 04:09:01;;;;;;;;;;;;;;;27.00;40.08;100167.84;4238636;33;33091;-92
2021/06/10 04:11:29;;;;;;;;;;;;;;;26.78;40.82;100165.50;4237811;33;33129;-93
2021/06/10 04:13:56;;;;;;;;;;;;;;;26.71;41.08;100183.03;4226199;33;33482;-91
2021/06/10 04:16:25;;;;;;;;;;;;;;;26.76;40.78;100180.81;4237424;33;33336;-91
2021/06/10 04:18:53;;;;;;;;;;;;;;;26.93;40.29;100180.09;4226194;33;33099;-91
2021/06/10 04:21:21;;;;;;;;;;;;;;;27.05;39.94;100182.63;4237384;33;34360;-91
2021/06/10 04:23:49;;;;;;;;;;;;;;;26.88;40.21;100185.00;4238035;33;32506;-91
2021/06/10 04:26:18;;;;;;;;;;;;;;;26.83;40.37;100181.91;4226193;33;32886;-92
2021/06/10 04:28:45;;;;;;;;;;;;;;;27.17;39.63;100190.31;4225999;33;34109;-94
2021/06/10 04:31:15;;;;;;;;;;;;;;;27.36;39.17;100185.06;4226026;33;33060;-91
2021/06/10 04:33:43;;;;;;;;;;;;;;;27.62;38.55;100188.78;4225890;33;33211;-93
2021/06/10 04:36:10;;;;;;;;;;;;;;;27.66;38.34;100186.66;4237542;33;32946;-93
2021/06/10 04:38:38;;;;;;;;;;;;;;;27.78;38.13;100190.00;4225819;33;33082;-93
2021/06/10 04:41:06;;;;;;;;;;;;;;;28.10;37.48;100192.25;4225571;33;32520;-92
2021/06/10 04:43:34;;;;;;;;;;;;;;;27.90;37.94;100196.84;4225517;33;32035;-94
2021/06/10 04:46:02;;;;;;;;;;;;;;;27.66;38.61;100200.88;4225533;33;32745;-93
2021/06/10 04:48:32;;;;;;;;;;;;;;;27.64;38.47;100194.84;4225435;33;33669;-91
2021/06/10 04:51:00;;;;;;;;;;;;;;;27.63;38.23;100198.50;4225281;33;32877;-92
2021/06/10 04:53:28;;;;;;;;;;;;;;;27.74;37.66;100193.97;4236258;33;33723;-92
2021/06/10 04:55:55;;;;;;;;;;;;;;;27.89;37.43;100215.72;4236317;33;33387;-88
2021/06/10 04:58:23;;;;;;;;;;;;;;;28.02;37.04;100202.03;4224511;33;33227;-91
2021/06/10 05:00:51;;;;;;;;;;;;;;;28.32;36.44;100200.84;4235918;33;32945;-90
2021/06/10 05:03:23;;;;;;;;;;;;;;;28.11;36.62;100201.97;4236257;33;33064;-91
2021/06/10 05:05:51;;;;;;;;;;;;;;;26.53;39.73;100207.78;4236717;33;33038;-91
2021/06/10 05:08:19;;;;;;;;;;;;;;;27.63;37.41;100208.38;4225039;33;33237;-91
2021/06/10 05:10:46;;;;;;;;;;;;;;;28.22;36.19;100216.97;4236373;33;33579;-90
2021/06/10 05:13:14;;;;;;;;;;;;;;;28.10;36.19;100219.03;4236184;33;32109;-90
2021/06/10 05:15:44;;;;;;;;;;;;;;;27.83;37.21;100218.00;4236468;33;34301;-90
2021/06/10 05:18:11;;;;;;;;;;;;;;;28.22;36.34;100219.66;4235437;33;33238;-91
2021/06/10 05:20:39;;;;;;;;;;;;;;;28.13;36.47;100220.56;4236120;33;33960;-91
2021/06/10 05:23:07;;;;;;;;;;;;;;;27.06;38.31;100214.56;4236615;33;33862;-90
2021/06/10 05:25:34;;;;;;;;;;;;;;;25.54;41.56;100216.47;4236445;33;33084;-90
2021/06/10 05:28:03;;;;;;;;;;;;;;;24.61;44.34;100210.00;4236759;33;33514;-90
2021/06/10 05:30:31;;;;;;;;;;;;;;;25.65;42.48;100208.38;4248838;33;33777;-90
2021/06/10 05:32:59;;;;;;;;;;;;;;;26.68;40.21;100218.88;4237190;33;33398;-90
2021/06/10 05:35:27;;;;;;;;;;;;;;;27.25;38.37;100223.53;4215884;33;32838;-90
2021/06/10 05:37:55;;;;;;;;;;;;;;;27.59;38.09;100226.56;4234757;33;33307;-91
2021/06/10 05:40:23;;;;;;;;;;;;;;;27.70;37.97;100217.50;4255367;33;34422;-93
2021/06/10 05:42:57;;;;;;;;;;;;;;;27.56;38.03;100212.63;4245407;33;31970;-91
2021/06/10 05:45:24;;;;;;;;;;;;;;;27.87;36.64;100215.88;4238777;33;32958;-93
2021/06/10 05:47:57;;;;;;;;;;;;;;;28.43;35.47;100216.69;4244971;33;33103;-92
2021/06/10 05:50:28;;;;;;;;;;;;;;;28.25;35.30;100215.84;4259557;33;33438;-94
2021/06/10 05:53:02;;;;;;;;;;;;;;;28.58;34.44;100218.84;4232766;33;33089;-93
2021/06/10 05:55:30;;;;;;;;;;;;;;;28.15;34.43;100216.75;4241212;33;34174;-93
2021/06/10 05:57:59;;;;;;;;;;;;;;;27.68;35.20;100214.13;4238630;33;32828;-92
2021/06/10 06:00:29;;;;;;;;;;;;;;;28.69;33.12;100210.59;4251960;33;33838;-91
2021/06/10 06:03:02;;;;;;;;;;;;;;;28.88;33.29;100209.59;4228916;33;33523;-91
2021/06/10 06:05:30;;;;;;;;;;;;;;;29.35;32.52;100205.75;4239247;33;34059;-89
2021/06/10 06:07:59;;;;;;;;;;;;;;;29.63;31.85;100195.66;4237158;33;33612;-89
2021/06/10 06:10:27;;;;;;;;;;;;;;;30.03;31.55;100206.78;4249373;33;34685;-90
2021/06/10 06:12:57;;;;;;;;;;;;;;;29.82;32.06;100208.03;4237519;33;32966;-89
2021/06/10 06:15:28;;;;;;;;;;;;;;;30.11;31.56;100209.47;4236816;33;32810;-90
2021/06/10 06:17:56;;;;;;;;;;;;;;;29.91;31.31;100208.09;4236018;33;34903;-90
2021/06/10 06:20:24;;;;;;;;;;;;;;;30.21;30.50;100203.97;4235887;33;33696;-89
2021/06/10 06:22:52;;;;;;;;;;;;;;;30.41;29.89;100209.91;4248133;33;33222;-90
2021/06/10 06:25:20;;;;;;;;;;;;;;;30.50;29.95;100213.44;4247198;33;33119;-88
2021/06/10 06:27:48;;;;;;;;;;;;;;;30.70;29.28;100214.00;4230388;33;34040;-89
2021/06/10 06:30:19;;;;;;;;;;;;;;;30.54;29.83;100217.53;4226710;33;33682;-93
2021/06/10 06:32:47;;;;;;;;;;;;;;;30.81;29.42;100220.88;4235015;33;32891;-92
2021/06/10 06:35:15;;;;;;;;;;;;;;;30.54;29.50;100222.91;4221463;33;32878;-91
2021/06/10 06:37:44;;;;;;;;;;;;;;;30.84;29.26;100222.41;4237086;33;33962;-90
2021/06/10 06:40:11;;;;;;;;;;;;;;;31.29;28.68;100218.34;4222859;33;33054;-90
2021/06/10 06:42:39;;;;;;;;;;;;;;;31.54;28.20;100218.28;4222829;33;32075;-90
2021/06/10 06:45:07;;;;;;;;;;;;;;;31.29;27.61;100218.34;4232625;33;34099;-90
2021/06/10 06:47:34;;;;;;;;;;;;;;;31.85;27.13;100221.06;4232795;33;34823;-91
2021/06/10 06:50:03;;;;;;;;;;;;;;;31.19;27.17;100225.75;4221309;33;34011;-89
2021/06/10 06:52:31;;;;;;;;;;;;;;;31.66;26.79;100208.88;4209442;33;33002;-90
2021/06/10 06:54:58;;;;;;;;;;;;;;;32.12;25.84;100217.06;4221323;33;32966;-90
2021/06/10 06:57:25;;;;;;;;;;;;;;;31.82;25.68;100224.13;4222409;33;32978;-89
2021/06/10 06:59:54;;;;;;;;;;;;;;;32.23;24.82;100210.47;4224286;33;33048;-89
2021/06/10 07:02:22;;;;;;;;;;;;;;;32.78;24.38;100215.84;4223838;33;32387;-90
2021/06/10 07:04:54;;;;;;;;;;;;;;;32.67;24.18;100213.53;4222087;33;33531;-92
2021/06/10 07:07:28;;;;;;;;;;;;;;;32.42;24.73;100224.50;4222852;33;33360;-92
2021/06/10 07:09:56;;;;;;;;;;;;;;;32.87;24.05;100224.69;4233753;33;34805;-93
2021/06/10 07:12:26;;;;;;;;;;;;;;;32.18;25.02;100237.09;4223296;33;32455;-95
2021/06/10 07:14:54;;;;;;;;;;;;;;;32.02;26.25;100237.16;4235452;33;33071;-91
2021/06/10 07:17:25;;;;;;;;;;;;;;;32.36;25.89;100236.00;4233231;33;34648;-92
2021/06/10 07:19:55;;;;;;;;;;;;;;;32.70;25.33;100235.59;4220926;33;32960;-89
2021/06/10 07:22:23;;;;;;;;;;;;;;;33.07;24.67;100230.44;4232791;33;32979;-89
2021/06/10 07:24:51;;;;;;;;;;;;;;;33.02;24.53;100239.06;4232322;33;33657;-89
2021/06/10 07:27:18;;;;;;;;;;;;;;;32.99;24.57;100230.47;4232382;33;34051;-89
2021/06/10 07:29:47;;;;;;;;;;;;;;;33.01;24.29;100240.06;4220700;33;33790;-89
2021/06/10 07:32:15;;;;;;;;;;;;;;;33.02;24.29;100235.53;4209506;33;33670;-90
2021/06/10 07:34:44;;;;;;;;;;;;;;;32.84;24.40;100235.84;4220884;33;33915;-89
2021/06/10 07:37:11;;;;;;;;;;;;;;;32.39;24.88;100228.41;4222852;33;33366;-89
2021/06/10 07:39:39;;;;;;;;;;;;;;;32.85;24.29;100230.25;4231317;33;33132;-89
2021/06/10 07:42:07;;;;;;;;;;;;;;;32.93;24.71;100227.50;4232394;33;32098;-89
2021/06/10 07:44:35;;;;;;;;;;;;;;;32.63;25.57;100230.06;4231046;33;33541;-90
2021/06/10 07:47:02;;;;;;;;;;;;;;;33.34;24.52;100234.41;4241662;33;35019;-90
2021/06/10 07:49:30;;;;;;;;;;;;;;;32.73;24.01;100235.25;4224330;33;34705;-90
2021/06/10 07:51:58;;;;;;;;;;;;;;;32.01;24.41;100239.00;4225196;33;32353;-90
2021/06/10 07:54:25;;;;;;;;;;;;;;;32.29;24.02;100236.69;4222564;33;34264;-93
2021/06/10 07:56:53;;;;;;;;;;;;;;;31.15;25.32;100241.41;4220834;33;33097;-89
2021/06/10 07:59:27;;;;;;;;;;;;;;;31.32;25.13;100239.53;4233002;33;33647;-92
2021/06/10 08:01:55;;;;;;;;;;;;;;;31.89;24.56;100235.84;4221286;33;31961;-93
2021/06/10 08:04:23;;;;;;;;;;;;;;;31.31;25.19;100241.41;4232732;33;33951;-92
2021/06/10 08:06:57;;;;;;;;;;;;;;;32.42;23.56;100232.59;4221163;33;34505;-90
2021/06/10 08:09:26;;;;;;;;;;;;;;;32.87;23.00;100227.37;4231578;33;34463;-89
2021/06/10 08:11:53;;;;;;;;;;;;;;;33.44;22.65;100234.13;4232741;33;34057;-93
2021/06/10 08:14:21;;;;;;;;;;;;;;;32.92;22.92;100235.78;4222582;33;33167;-94
2021/06/10 08:16:49;;;;;;;;;;;;;;;32.98;22.65;100232.34;4221689;33;33370;-90
2021/06/10 08:19:16;;;;;;;;;;;;;;;33.20;22.60;100235.19;4220328;33;33769;-89
2021/06/10 08:21:45;;;;;;;;;;;;;;;32.71;23.15;100233.72;4232812;33;32048;-90
2021/06/10 08:24:14;;;;;;;;;;;;;;;33.25;22.25;100236.38;4234153;33;32992;-90
2021/06/10 08:26:43;;;;;;;;;;;;;;;33.17;22.42;100228.28;4245801;33;33643;-89
2021/06/10 08:29:11;;;;;;;;;;;;;;;32.71;23.31;100234.59;4244013;33;32783;-89
2021/06/10 08:31:39;;;;;;;;;;;;;;;34.01;21.89;100239.91;4234042;33;32212;-89
2021/06/10 08:34:07;;;;;;;;;;;;;;;33.82;22.15;100234.06;4246353;33;32955;-89
2021/06/10 08:36:34;;;;;;;;;;;;;;;33.53;22.45;100224.91;4245922;33;32722;-89
2021/06/10 08:39:03;;;;;;;;;;;;;;;34.02;21.88;100228.06;4245776;33;33788;-90
2021/06/10 08:41:33;;;;;;;;;;;;;;;34.44;21.32;100235.44;4247037;33;32948;-90
2021/06/10 08:44:00;;;;;;;;;;;;;;;33.28;22.67;100233.28;4245302;33;33867;-89
2021/06/10 08:46:28;;;;;;;;;;;;;;;32.61;23.72;100242.88;4245866;33;34809;-89
2021/06/10 08:48:55;;;;;;;;;;;;;;;32.78;23.72;100235.53;4257747;33;35275;-89
2021/06/10 08:51:23;;;;;;;;;;;;;;;32.03;24.88;100233.44;4257541;33;33247;-90
2021/06/10 08:53:50;;;;;;;;;;;;;;;32.56;25.53;100239.06;4246956;33;33975;-89
2021/06/10 08:56:18;;;;;;;;;;;;;;;32.86;25.23;100234.66;4247568;33;34119;-90
2021/06/10 08:58:46;;;;;;;;;;;;;;;33.67;24.02;100235.91;4247783;33;32882;-89
2021/06/10 09:01:15;;;;;;;;;;;;;;;34.20;22.98;100233.91;4262130;33;32574;-93
2021/06/10 09:03:43;;;;;;;;;;;;;;;34.32;22.88;100239.69;4249961;33;33927;-93
2021/06/10 09:06:16;;;;;;;;;;;;;;;34.69;22.59;100239.63;4249770;33;33710;-92
2021/06/10 09:08:45;;;;;;;;;;;;;;;34.27;23.26;100233.97;4227254;33;33740;-93
2021/06/10 09:11:16;;;;;;;;;;;;;;;34.59;22.68;100238.06;4238223;33;32086;-90
2021/06/10 09:13:48;;;;;;;;;;;;;;;34.38;23.05;100236.19;4238574;33;34039;-90
2021/06/10 09:16:18;;;;;;;;;;;;;;;33.91;23.79;100240.22;4226816;33;33093;-91
2021/06/10 09:18:52;;;;;;;;;;;;;;;33.32;24.50;100239.16;4238551;33;33048;-89
2021/06/10 09:21:27;;;;;;;;;;;;;;;32.60;25.52;100246.63;4238415;33;32100;-89
2021/06/10 09:23:55;;;;;;;;;;;;;;;32.26;25.98;100245.16;4236015;33;32622;-90
2021/06/10 09:26:23;;;;;;;;;;;;;;;33.07;24.58;100242.06;4235759;33;34228;-90
2021/06/10 09:28:51;;;;;;;;;;;;;;;33.98;23.38;100243.81;4236287;33;32993;-90
2021/06/10 09:31:33;;;;;;;;;;;;;;;33.99;23.21;100241.97;4247261;33;32237;-91
2021/06/10 09:34:06;;;;;;;;;;;;;;;33.94;23.02;100237.94;4238165;33;32774;-90
2021/06/10 09:36:46;;;;;;;;;;;;;;;33.07;24.14;100247.47;4238808;33;33996;-90
2021/06/10 09:39:15;;;;;;;;;;;;;;;34.02;22.92;100244.28;4248986;33;33344;-91
2021/06/10 09:42:02;;;;;;;;;;;;;;;33.60;23.01;100241.19;4242436;33;32731;-91
2021/06/10 09:44:43;;;;;;;;;;;;;;;32.50;24.58;100242.50;4245450;33;33080;-92
2021/06/10 09:47:14;;;;;;;;;;;;;;;33.78;23.05;100244.37;4221399;33;33727;-92
2021/06/10 09:49:42;;;;;;;;;;;;;;;33.61;23.20;100238.34;4237444;33;33319;-92
2021/06/10 09:52:10;;;;;;;;;;;;;;;34.18;22.38;100246.75;4223317;33;33283;-90
2021/06/10 09:54:42;;;;;;;;;;;;;;;34.81;21.88;100248.06;4235706;33;34284;-88
2021/06/10 09:57:11;;;;;;;;;;;;;;;34.40;22.50;100239.56;4230922;33;33011;-88
2021/06/10 09:59:44;;;;;;;;;;;;;;;34.71;21.84;100248.38;4206841;33;32865;-89
2021/06/10 10:02:21;;;;;;;;;;;;;;;35.06;21.28;100243.09;4235088;33;31813;-89
2021/06/10 10:04:59;;;;;;;;;;;;;;;35.88;20.10;100233.44;4246881;33;32627;-90
2021/06/10 10:07:29;;;;;;;;;;;;;;;36.21;19.75;100237.31;4247408;33;34192;-91
2021/06/10 10:09:59;;;;;;;;;;;;;;;36.35;19.54;100225.50;4224140;33;32803;-91
2021/06/10 10:12:30;;;;;;;;;;;;;;;36.24;20.07;100232.31;4247361;33;32910;-89
2021/06/10 10:14:59;;;;;;;;;;;;;;;35.91;20.37;100224.91;4235988;33;33984;-89
2021/06/10 10:17:27;;;;;;;;;;;;;;;36.07;20.26;100228.28;4235695;33;34117;-89
2021/06/10 10:19:56;;;;;;;;;;;;;;;36.25;20.04;100223.13;4235269;33;32753;-90
2021/06/10 10:22:24;;;;;;;;;;;;;;;35.88;20.70;100225.31;4223510;33;33119;-90
2021/06/10 10:24:53;;;;;;;;;;;;;;;35.92;20.66;100232.00;4229701;33;33932;-90
2021/06/10 10:27:22;;;;;;;;;;;;;;;35.14;21.58;100226.69;4229901;33;32915;-89
2021/06/10 10:29:50;;;;;;;;;;;;;;;34.89;21.59;100226.28;4238519;33;32648;-90
2021/06/10 10:32:22;;;;;;;;;;;;;;;34.77;21.95;100228.69;4239507;33;32032;-90
2021/06/10 10:34:50;;;;;;;;;;;;;;;34.67;22.06;100225.47;4231207;33;33006;-90
2021/06/10 10:37:22;;;;;;;;;;;;;;;34.26;22.78;100219.63;4235260;33;34037;-90
2021/06/10 10:39:53;;;;;;;;;;;;;;;35.54;21.34;100218.88;4231943;33;33200;-89
2021/06/10 10:42:29;;;;;;;;;;;;;;;35.58;20.88;100209.31;4250154;33;33369;-89
2021/06/10 10:45:16;;;;;;;;;;;;;;;35.58;21.02;100212.03;4224264;33;33060;-89
2021/06/10 10:47:44;;;;;;;;;;;;;;;35.43;21.08;100211.28;4232778;33;34132;-90
2021/06/10 10:50:17;;;;;;;;;;;;;;;35.57;20.98;100202.22;4221316;33;32734;-89
2021/06/10 10:52:52;;;;;;;;;;;;;;;35.19;21.88;100202.56;4232627;33;33138;-88
2021/06/10 10:55:27;;;;;;;;;;;;;;;35.40;21.66;100204.41;4244485;33;33615;-89
2021/06/10 10:57:58;;;;;;;;;;;;;;;35.96;21.16;100202.59;4221013;33;33111;-89
2021/06/10 11:00:46;;;;;;;;;;;;;;;35.81;21.20;100191.91;4232361;33;33268;-89
2021/06/10 11:03:18;;;;;;;;;;;;;;;36.11;20.86;100195.16;4234759;33;32504;-89
2021/06/10 11:05:46;;;;;;;;;;;;;;;35.77;20.84;100204.19;4209349;33;33783;-89
2021/06/10 11:08:14;;;;;;;;;;;;;;;35.31;21.63;100197.44;4221170;33;33416;-89
2021/06/10 11:10:51;;;;;;;;;;;;;;;35.67;21.11;100190.16;4220748;33;32977;-89
2021/06/10 11:13:26;;;;;;;;;;;;;;;35.45;21.18;100182.16;4232602;33;33283;-89
2021/06/10 11:15:58;;;;;;;;;;;;;;;35.34;21.25;100177.28;4243483;33;33568;-92
2021/06/10 11:18:39;;;;;;;;;;;;;;;35.51;21.25;100173.19;4220890;33;33335;-92
2021/06/10 11:21:07;;;;;;;;;;;;;;;35.75;20.75;100181.84;4221223;33;33905;-91
2021/06/10 11:23:35;;;;;;;;;;;;;;;35.51;20.63;100169.66;4221220;33;33600;-90
2021/06/10 11:26:04;;;;;;;;;;;;;;;35.73;20.34;100178.53;4220957;33;33719;-91
2021/06/10 11:28:35;;;;;;;;;;;;;;;36.41;19.34;100169.56;4221821;33;34062;-91
2021/06/10 11:31:11;;;;;;;;;;;;;;;35.74;20.13;100172.03;4228381;33;34319;-90
2021/06/10 11:33:39;;;;;;;;;;;;;;;35.29;20.12;100161.63;4227687;33;32224;-90
2021/06/10 11:36:07;;;;;;;;;;;;;;;35.50;20.20;100158.00;4225006;33;33341;-91
2021/06/10 11:38:39;;;;;;;;;;;;;;;34.98;21.62;100149.31;4216550;33;32983;-91
2021/06/10 11:41:09;;;;;;;;;;;;;;;34.85;22.26;100149.22;4251577;33;34354;-90
2021/06/10 11:43:40;;;;;;;;;;;;;;;36.19;20.44;100148.03;4232666;33;32551;-91
2021/06/10 11:46:11;;;;;;;;;;;;;;;35.70;20.54;100146.41;4247692;33;32874;-91
2021/06/10 11:48:42;;;;;;;;;;;;;;;36.01;20.16;100142.37;4246505;33;34572;-91
2021/06/10 11:51:20;;;;;;;;;;;;;;;35.84;19.82;100131.87;4250660;33;34253;-90
2021/06/10 11:53:49;;;;;;;;;;;;;;;36.47;19.05;100124.50;4224440;33;32442;-90
2021/06/10 11:56:44;;;;;;;;;;;;;;;36.02;19.30;100120.47;4224682;33;34131;-91
2021/06/10 11:59:28;;;;;;;;;;;;;;;35.50;19.58;100119.22;4246111;33;33365;-91
2021/06/10 12:01:56;;;;;;;;;;;;;;;36.55;18.69;100106.13;4228258;33;33030;-89
2021/06/10 12:04:31;;;;;;;;;;;;;;;36.77;19.54;100114.87;4236762;33;32299;-89
2021/06/10 12:07:08;;;;;;;;;;;;;;;37.21;18.80;100108.97;4235275;33;34086;-88
2021/06/10 12:09:56;;;;;;;;;;;;;;;37.18;19.12;100103.97;4246000;33;33161;-89
2021/06/10 12:12:30;;;;;;;;;;;;;;;36.92;18.92;100095.69;4248389;33;33456;-90
2021/06/10 12:14:59;;;;;;;;;;;;;;;36.61;18.52;100093.59;4229583;33;34009;-89
2021/06/10 12:17:26;;;;;;;;;;;;;;;36.51;18.71;100088.63;4222859;33;34176;-89
2021/06/10 12:20:12;;;;;;;;;;;;;;;36.64;18.82;100079.59;4226708;33;35082;-91
2021/06/10 12:22:52;;;;;;;;;;;;;;;36.18;20.14;100089.41;4239957;33;32850;-90
2021/06/10 12:25:21;;;;;;;;;;;;;;;37.20;19.28;100091.00;4246056;33;31949;-89
2021/06/10 12:27:48;;;;;;;;;;;;;;;36.99;19.19;100073.09;4231778;33;34806;-89
2021/06/10 12:30:20;;;;;;;;;;;;;;;37.66;18.10;100075.56;4241863;33;33920;-88
2021/06/10 12:32:47;;;;;;;;;;;;;;;37.62;18.00;100077.87;4250404;33;33075;-90
2021/06/10 12:35:19;;;;;;;;;;;;;;;37.58;18.83;100074.75;4248163;33;32402;-89
2021/06/10 12:37:51;;;;;;;;;;;;;;;37.29;19.07;100075.28;4228453;33;34498;-89
2021/06/10 12:40:19;;;;;;;;;;;;;;;37.96;18.28;100072.25;4236110;33;33196;-89
2021/06/10 12:43:20;;;;;;;;;;;;;;;38.32;17.47;100076.19;4224590;33;33963;-89
2021/06/10 12:45:48;;;;;;;;;;;;;;;37.54;18.38;100069.97;4230509;33;33011;-89
2021/06/10 12:48:34;;;;;;;;;;;;;;;;;;;;;
2021/06/10 12:51:25;;;;;;;;;;;;;;;38.22;18.25;100077.47;4236946;33;33530;-89